sensor_id;sensor_type;location;lat;lon;timestamp;pressure;altitude;pressure_sealevel;temperature;humidity
1652;BME280;823;49.028;8.454;2022-09-25T00:02:33;100052.53;;;17.51;63.61
1652;BME280;823;49.028;8.454;2022-09-25T00:07:33;100053.56;;;17.49;64.05
1652;BME280;823;49.028;8.454;2022-09-25T00:12:34;100054.06;;;17.41;64.39
1652;BME280;823;49.028;8.454;2022-09-25T00:17:35;100046.44;;;17.38;64.28
1652;BME280;823;49.028;8.454;2022-09-25T00:22:35;100042.78;;;17.41;64.15
1652;BME280;823;49.028;8.454;2022-09-25T00:27:35;100036.19;;;17.35;64.42
1652;BME280;823;49.028;8.454;2022-09-25T00:32:36;100036.91;;;17.37;64.50
1652;BME280;823;49.028;8.454;2022-09-25T00:37:37;100034.09;;;17.40;64.27
1652;BME280;823;49.028;8.454;2022-09-25T00:42:37;100029.19;;;17.35;64.58
1652;BME280;823;49.028;8.454;2022-09-25T00:47:50;100028.25;;;17.36;64.39
1652;BME280;823;49.028;8.454;2022-09-25T00:52:53;100025.75;;;17.35;64.49
1652;BME280;823;49.028;8.454;2022-09-25T00:57:55;100018.84;;;17.34;64.61
1652;BME280;823;49.028;8.454;2022-09-25T01:02:57;100016.31;;;17.32;64.42
1652;BME280;823;49.028;8.454;2022-09-25T01:08:00;100011.31;;;17.29;64.57
1652;BME280;823;49.028;8.454;2022-09-25T01:13:02;100013.81;;;17.31;64.27
1652;BME280;823;49.028;8.454;2022-09-25T01:18:24;100003.25;;;17.32;64.21
1652;BME280;823;49.028;8.454;2022-09-25T01:23:55;100010.25;;;17.32;64.12
1652;BME280;823;49.028;8.454;2022-09-25T01:34:21;100009.41;;;17.31;64.46
1652;BME280;823;49.028;8.454;2022-09-25T01:39:31;100013.59;;;17.34;64.41
1652;BME280;823;49.028;8.454;2022-09-25T01:44:43;100016.94;;;17.36;64.44
1652;BME280;823;49.028;8.454;2022-09-25T01:49:48;100011.81;;;17.34;64.54
1652;BME280;823;49.028;8.454;2022-09-25T01:54:54;100011.91;;;17.33;64.52
1652;BME280;823;49.028;8.454;2022-09-25T02:00:05;100012.97;;;17.30;64.70
1652;BME280;823;49.028;8.454;2022-09-25T02:10:18;100004.81;;;17.35;64.45
1652;BME280;823;49.028;8.454;2022-09-25T02:15:25;100003.03;;;17.35;64.31
1652;BME280;823;49.028;8.454;2022-09-25T02:20:31;100004.72;;;17.36;64.45
1652;BME280;823;49.028;8.454;2022-09-25T02:25:39;100001.25;;;17.36;64.30
1652;BME280;823;49.028;8.454;2022-09-25T02:30:41;100006.28;;;17.39;64.18
1652;BME280;823;49.028;8.454;2022-09-25T02:35:43;99993.50;;;17.34;64.38
1652;BME280;823;49.028;8.454;2022-09-25T02:40:50;99999.59;;;17.35;64.45
1652;BME280;823;49.028;8.454;2022-09-25T02:46:05;100005.44;;;17.39;64.19
1652;BME280;823;49.028;8.454;2022-09-25T02:56:31;100002.94;;;17.37;64.43
1652;BME280;823;49.028;8.454;2022-09-25T03:01:34;99998.53;;;17.38;64.20
1652;BME280;823;49.028;8.454;2022-09-25T03:06:37;99990.78;;;17.36;64.15
1652;BME280;823;49.028;8.454;2022-09-25T03:11:37;99989.97;;;17.35;64.03
1652;BME280;823;49.028;8.454;2022-09-25T03:16:41;99989.16;;;17.35;64.32
1652;BME280;823;49.028;8.454;2022-09-25T03:21:45;99994.38;;;17.35;64.19
1652;BME280;823;49.028;8.454;2022-09-25T03:26:45;99987.47;;;17.34;64.27
1652;BME280;823;49.028;8.454;2022-09-25T03:31:47;99995.41;;;17.32;64.30
1652;BME280;823;49.028;8.454;2022-09-25T03:36:47;99990.06;;;17.34;64.21
1652;BME280;823;49.028;8.454;2022-09-25T03:41:48;99993.84;;;17.30;64.20
1652;BME280;823;49.028;8.454;2022-09-25T03:46:48;99987.56;;;17.32;64.17
1652;BME280;823;49.028;8.454;2022-09-25T03:51:48;99986.53;;;17.35;64.08
1652;BME280;823;49.028;8.454;2022-09-25T03:56:48;99986.44;;;17.36;64.08
1652;BME280;823;49.028;8.454;2022-09-25T04:01:49;99994.38;;;17.35;64.44
1652;BME280;823;49.028;8.454;2022-09-25T04:06:49;99991.88;;;17.33;63.88
1652;BME280;823;49.028;8.454;2022-09-25T04:11:49;99987.47;;;17.34;64.03
1652;BME280;823;49.028;8.454;2022-09-25T04:16:50;99985.88;;;17.31;64.22
1652;BME280;823;49.028;8.454;2022-09-25T04:21:50;99982.34;;;17.32;64.12
1652;BME280;823;49.028;8.454;2022-09-25T04:26:51;99979.63;;;17.34;64.00
1652;BME280;823;49.028;8.454;2022-09-25T04:31:52;99981.38;;;17.21;64.12
1652;BME280;823;49.028;8.454;2022-09-25T04:37:11;99989.75;;;17.26;64.02
1652;BME280;823;49.028;8.454;2022-09-25T04:42:14;99998.31;;;17.28;63.71
1652;BME280;823;49.028;8.454;2022-09-25T04:47:14;99990.47;;;17.15;63.64
1652;BME280;823;49.028;8.454;2022-09-25T04:52:16;99998.31;;;17.15;63.54
1652;BME280;823;49.028;8.454;2022-09-25T04:57:19;100004.19;;;17.18;63.62
1652;BME280;823;49.028;8.454;2022-09-25T05:02:19;100009.41;;;17.18;63.74
1652;BME280;823;49.028;8.454;2022-09-25T05:07:20;100003.66;;;17.13;63.38
1652;BME280;823;49.028;8.454;2022-09-25T05:12:20;99998.41;;;17.13;63.66
1652;BME280;823;49.028;8.454;2022-09-25T05:17:20;100004.25;;;17.04;63.74
1652;BME280;823;49.028;8.454;2022-09-25T05:22:21;100004.22;;;16.91;64.23
1652;BME280;823;49.028;8.454;2022-09-25T05:27:21;100001.00;;;16.73;65.51
1652;BME280;823;49.028;8.454;2022-09-25T05:32:22;99997.22;;;16.64;65.86
1652;BME280;823;49.028;8.454;2022-09-25T05:37:24;100001.25;;;16.56;66.36
1652;BME280;823;49.028;8.454;2022-09-25T05:42:24;100005.19;;;16.48;67.09
1652;BME280;823;49.028;8.454;2022-09-25T05:47:24;100001.13;;;16.44;67.53
1652;BME280;823;49.028;8.454;2022-09-25T05:52:25;100006.22;;;16.46;67.87
1652;BME280;823;49.028;8.454;2022-09-25T05:57:25;100006.88;;;16.49;67.85
1652;BME280;823;49.028;8.454;2022-09-25T06:02:26;100010.81;;;16.42;67.84
1652;BME280;823;49.028;8.454;2022-09-25T06:07:27;100012.78;;;16.39;68.24
1652;BME280;823;49.028;8.454;2022-09-25T06:12:28;100012.06;;;16.37;68.37
1652;BME280;823;49.028;8.454;2022-09-25T06:17:28;100016.41;;;16.36;68.49
1652;BME280;823;49.028;8.454;2022-09-25T06:22:29;100019.97;;;16.35;68.67
1652;BME280;823;49.028;8.454;2022-09-25T06:27:29;100023.63;;;16.32;69.03
1652;BME280;823;49.028;8.454;2022-09-25T06:32:30;100025.38;;;16.32;69.17
1652;BME280;823;49.028;8.454;2022-09-25T06:37:30;100023.31;;;16.37;69.12
1652;BME280;823;49.028;8.454;2022-09-25T06:42:31;100029.28;;;16.39;69.03
1652;BME280;823;49.028;8.454;2022-09-25T06:47:34;100035.34;;;16.40;68.71
1652;BME280;823;49.028;8.454;2022-09-25T06:52:41;100036.38;;;16.37;68.81
1652;BME280;823;49.028;8.454;2022-09-25T06:57:41;100035.25;;;16.41;69.41
1652;BME280;823;49.028;8.454;2022-09-25T07:02:44;100041.13;;;16.45;69.12
1652;BME280;823;49.028;8.454;2022-09-25T07:08:03;100028.69;;;16.48;69.01
1652;BME280;823;49.028;8.454;2022-09-25T07:13:03;100027.97;;;16.46;68.92
1652;BME280;823;49.028;8.454;2022-09-25T07:18:03;100034.75;;;16.49;68.68
1652;BME280;823;49.028;8.454;2022-09-25T07:23:04;100046.75;;;16.51;68.94
1652;BME280;823;49.028;8.454;2022-09-25T07:28:04;100042.50;;;16.50;68.59
1652;BME280;823;49.028;8.454;2022-09-25T07:33:06;100038.09;;;16.51;68.65
1652;BME280;823;49.028;8.454;2022-09-25T07:38:06;100035.28;;;16.54;68.66
1652;BME280;823;49.028;8.454;2022-09-25T07:43:07;100037.09;;;16.54;69.03
1652;BME280;823;49.028;8.454;2022-09-25T07:48:07;100039.38;;;16.58;68.52
1652;BME280;823;49.028;8.454;2022-09-25T07:53:08;100028.66;;;16.63;68.59
1652;BME280;823;49.028;8.454;2022-09-25T07:58:08;100032.75;;;16.67;68.50
1652;BME280;823;49.028;8.454;2022-09-25T08:03:09;100033.59;;;16.67;68.44
1652;BME280;823;49.028;8.454;2022-09-25T08:08:10;100027.34;;;16.70;68.17
1652;BME280;823;49.028;8.454;2022-09-25T08:13:10;100033.28;;;16.72;68.30
1652;BME280;823;49.028;8.454;2022-09-25T08:18:10;100027.47;;;16.81;68.33
1652;BME280;823;49.028;8.454;2022-09-25T08:23:11;100035.84;;;16.87;68.25
1652;BME280;823;49.028;8.454;2022-09-25T08:28:11;100037.50;;;16.88;68.22
1652;BME280;823;49.028;8.454;2022-09-25T08:33:12;100030.44;;;16.90;68.16
1652;BME280;823;49.028;8.454;2022-09-25T08:38:12;100039.00;;;16.92;68.00
1652;BME280;823;49.028;8.454;2022-09-25T08:43:17;100038.28;;;16.90;68.02
1652;BME280;823;49.028;8.454;2022-09-25T08:48:29;100040.91;;;16.90;68.08
1652;BME280;823;49.028;8.454;2022-09-25T08:53:49;100039.16;;;16.76;68.22
1652;BME280;823;49.028;8.454;2022-09-25T08:59:09;100042.25;;;16.68;68.03
1652;BME280;823;49.028;8.454;2022-09-25T09:04:20;100033.72;;;16.51;68.46
1652;BME280;823;49.028;8.454;2022-09-25T09:09:30;100032.72;;;16.40;68.58
1652;BME280;823;49.028;8.454;2022-09-25T09:14:39;100039.19;;;16.34;69.10
1652;BME280;823;49.028;8.454;2022-09-25T09:19:41;100041.97;;;16.31;69.69
1652;BME280;823;49.028;8.454;2022-09-25T09:30:14;100048.88;;;16.32;69.74
1652;BME280;823;49.028;8.454;2022-09-25T09:51:14;100039.03;;;16.23;69.99
1652;BME280;823;49.028;8.454;2022-09-25T09:56:19;100042.16;;;16.28;70.62
1652;BME280;823;49.028;8.454;2022-09-25T10:01:23;100036.47;;;16.36;70.46
1652;BME280;823;49.028;8.454;2022-09-25T10:06:27;100044.75;;;16.42;70.65
1652;BME280;823;49.028;8.454;2022-09-25T10:11:30;100047.78;;;16.49;70.73
1652;BME280;823;49.028;8.454;2022-09-25T10:16:32;100042.91;;;16.57;70.55
1652;BME280;823;49.028;8.454;2022-09-25T10:26:38;100036.00;;;16.71;70.49
1652;BME280;823;49.028;8.454;2022-09-25T10:31:39;100029.94;;;16.70;70.67
1652;BME280;823;49.028;8.454;2022-09-25T10:36:49;100041.66;;;16.77;69.99
1652;BME280;823;49.028;8.454;2022-09-25T10:41:52;100025.16;;;16.77;70.42
1652;BME280;823;49.028;8.454;2022-09-25T10:46:53;100026.22;;;16.87;70.81
1652;BME280;823;49.028;8.454;2022-09-25T10:52:19;100024.63;;;16.99;70.87
1652;BME280;823;49.028;8.454;2022-09-25T10:57:33;100022.88;;;17.12;70.43
1652;BME280;823;49.028;8.454;2022-09-25T11:02:40;100031.25;;;17.17;70.72
1652;BME280;823;49.028;8.454;2022-09-25T11:07:52;100034.28;;;17.24;70.35
1652;BME280;823;49.028;8.454;2022-09-25T11:12:54;100035.34;;;17.22;70.44
1652;BME280;823;49.028;8.454;2022-09-25T11:17:56;100044.00;;;17.22;70.61
1652;BME280;823;49.028;8.454;2022-09-25T11:39:11;100026.16;;;17.55;70.41
1652;BME280;823;49.028;8.454;2022-09-25T11:44:54;100033.25;;;17.52;70.00
1652;BME280;823;49.028;8.454;2022-09-25T11:49:59;100027.91;;;17.54;69.92
1652;BME280;823;49.028;8.454;2022-09-25T12:00:55;100031.59;;;17.77;69.76
1652;BME280;823;49.028;8.454;2022-09-25T12:17:19;100019.69;;;17.99;68.84
1652;BME280;823;49.028;8.454;2022-09-25T12:38:00;100017.34;;;17.81;68.04
1652;BME280;823;49.028;8.454;2022-09-25T12:43:08;100011.91;;;17.84;67.99
1652;BME280;823;49.028;8.454;2022-09-25T12:48:29;100013.22;;;17.92;67.71
1652;BME280;823;49.028;8.454;2022-09-25T12:53:37;99995.03;;;17.88;67.82
1652;BME280;823;49.028;8.454;2022-09-25T12:58:46;99995.78;;;17.91;67.83
1652;BME280;823;49.028;8.454;2022-09-25T13:04:09;99998.53;;;18.02;67.99
1652;BME280;823;49.028;8.454;2022-09-25T13:09:15;99992.13;;;18.06;67.88
1652;BME280;823;49.028;8.454;2022-09-25T13:14:31;99991.38;;;18.17;67.56
1652;BME280;823;49.028;8.454;2022-09-25T13:19:33;99986.19;;;18.28;67.99
1652;BME280;823;49.028;8.454;2022-09-25T13:24:43;99988.44;;;18.46;67.55
1652;BME280;823;49.028;8.454;2022-09-25T13:29:50;99989.66;;;18.53;67.17
1652;BME280;823;49.028;8.454;2022-09-25T13:34:55;99990.59;;;18.52;66.69
1652;BME280;823;49.028;8.454;2022-09-25T13:39:57;99998.69;;;18.49;66.72
1652;BME280;823;49.028;8.454;2022-09-25T13:50:32;99993.34;;;18.50;66.60
1652;BME280;823;49.028;8.454;2022-09-25T13:55:39;99996.78;;;18.51;66.37
1652;BME280;823;49.028;8.454;2022-09-25T14:05:41;99995.16;;;18.37;66.18
1652;BME280;823;49.028;8.454;2022-09-25T14:10:46;99997.84;;;18.24;65.87
1652;BME280;823;49.028;8.454;2022-09-25T14:15:49;99988.88;;;18.15;65.33
1652;BME280;823;49.028;8.454;2022-09-25T14:20:56;99982.66;;;18.16;65.08
1652;BME280;823;49.028;8.454;2022-09-25T14:26:02;99985.28;;;18.16;65.10
1652;BME280;823;49.028;8.454;2022-09-25T14:31:12;99984.72;;;18.00;65.31
1652;BME280;823;49.028;8.454;2022-09-25T14:47:18;99980.03;;;18.16;65.63
1652;BME280;823;49.028;8.454;2022-09-25T14:52:24;99977.53;;;18.28;65.71
1652;BME280;823;49.028;8.454;2022-09-25T14:57:30;99978.34;;;18.28;65.88
1652;BME280;823;49.028;8.454;2022-09-25T15:02:41;99986.66;;;18.09;65.00
1652;BME280;823;49.028;8.454;2022-09-25T15:07:44;99978.97;;;17.69;63.32
1652;BME280;823;49.028;8.454;2022-09-25T15:12:45;99983.28;;;17.44;64.64
1652;BME280;823;49.028;8.454;2022-09-25T15:17:56;99980.56;;;17.33;64.88
1652;BME280;823;49.028;8.454;2022-09-25T15:23:07;99975.22;;;17.09;65.79
1652;BME280;823;49.028;8.454;2022-09-25T15:28:15;99971.44;;;17.00;66.57
1652;BME280;823;49.028;8.454;2022-09-25T15:33:27;99975.94;;;16.98;66.77
1652;BME280;823;49.028;8.454;2022-09-25T15:38:36;99984.44;;;16.87;67.85
1652;BME280;823;49.028;8.454;2022-09-25T15:43:36;99991.59;;;16.71;68.18
1652;BME280;823;49.028;8.454;2022-09-25T15:48:56;99990.63;;;16.59;68.46
1652;BME280;823;49.028;8.454;2022-09-25T15:54:01;99983.88;;;16.42;68.94
1652;BME280;823;49.028;8.454;2022-09-25T15:59:11;99999.84;;;16.37;68.83
1652;BME280;823;49.028;8.454;2022-09-25T16:04:19;100004.75;;;16.42;68.73
1652;BME280;823;49.028;8.454;2022-09-25T16:09:45;100000.19;;;16.45;68.67
1652;BME280;823;49.028;8.454;2022-09-25T16:14:47;100005.97;;;16.36;68.67
1652;BME280;823;49.028;8.454;2022-09-25T16:25:32;100026.69;;;16.25;68.69
1652;BME280;823;49.028;8.454;2022-09-25T16:30:33;100024.66;;;16.30;68.57
1652;BME280;823;49.028;8.454;2022-09-25T16:35:36;100029.66;;;16.33;68.32
1652;BME280;823;49.028;8.454;2022-09-25T16:40:38;100034.00;;;16.47;68.64
1652;BME280;823;49.028;8.454;2022-09-25T16:45:56;100041.28;;;16.42;68.40
1652;BME280;823;49.028;8.454;2022-09-25T16:50:58;100034.84;;;16.47;68.13
1652;BME280;823;49.028;8.454;2022-09-25T16:56:00;100028.13;;;16.43;68.22
1652;BME280;823;49.028;8.454;2022-09-25T17:01:00;100030.94;;;16.40;67.81
1652;BME280;823;49.028;8.454;2022-09-25T17:06:03;100024.81;;;16.41;67.67
1652;BME280;823;49.028;8.454;2022-09-25T17:11:04;100032.53;;;16.43;67.84
1652;BME280;823;49.028;8.454;2022-09-25T17:16:05;100038.78;;;16.40;68.07
1652;BME280;823;49.028;8.454;2022-09-25T17:21:13;100031.31;;;16.48;67.48
1652;BME280;823;49.028;8.454;2022-09-25T17:26:17;100038.00;;;16.52;67.85
1652;BME280;823;49.028;8.454;2022-09-25T17:31:20;100038.22;;;16.49;68.11
1652;BME280;823;49.028;8.454;2022-09-25T17:36:20;100041.75;;;16.48;67.59
1652;BME280;823;49.028;8.454;2022-09-25T17:41:34;100041.16;;;16.58;67.65
1652;BME280;823;49.028;8.454;2022-09-25T17:46:35;100053.66;;;16.52;67.89
1652;BME280;823;49.028;8.454;2022-09-25T17:51:35;100053.66;;;16.52;67.62
1652;BME280;823;49.028;8.454;2022-09-25T17:56:36;100053.88;;;16.49;67.79
1652;BME280;823;49.028;8.454;2022-09-25T18:01:39;100062.84;;;16.45;67.89
1652;BME280;823;49.028;8.454;2022-09-25T18:06:39;100065.34;;;16.47;67.93
1652;BME280;823;49.028;8.454;2022-09-25T18:11:42;100072.44;;;16.45;67.76
1652;BME280;823;49.028;8.454;2022-09-25T18:16:44;100078.78;;;16.41;67.75
1652;BME280;823;49.028;8.454;2022-09-25T18:21:44;100080.53;;;16.40;67.78
1652;BME280;823;49.028;8.454;2022-09-25T18:27:03;100078.13;;;16.37;67.98
1652;BME280;823;49.028;8.454;2022-09-25T18:32:03;100076.44;;;16.36;68.37
1652;BME280;823;49.028;8.454;2022-09-25T18:37:04;100087.66;;;16.38;67.84
1652;BME280;823;49.028;8.454;2022-09-25T18:42:04;100097.22;;;16.38;68.21
1652;BME280;823;49.028;8.454;2022-09-25T18:47:05;100102.66;;;16.34;68.13
1652;BME280;823;49.028;8.454;2022-09-25T18:52:06;100097.13;;;16.39;67.84
1652;BME280;823;49.028;8.454;2022-09-25T18:57:07;100102.28;;;16.41;67.84
1652;BME280;823;49.028;8.454;2022-09-25T19:02:37;100109.91;;;16.44;67.52
1652;BME280;823;49.028;8.454;2022-09-25T19:07:41;100102.28;;;16.41;67.62
1652;BME280;823;49.028;8.454;2022-09-25T19:12:42;100105.53;;;16.44;67.85
1652;BME280;823;49.028;8.454;2022-09-25T19:17:43;100100.59;;;16.40;67.79
1652;BME280;823;49.028;8.454;2022-09-25T19:22:44;100104.78;;;16.42;67.84
1652;BME280;823;49.028;8.454;2022-09-25T19:27:45;100115.03;;;16.45;67.27
1652;BME280;823;49.028;8.454;2022-09-25T19:32:47;100108.13;;;16.44;67.49
1652;BME280;823;49.028;8.454;2022-09-25T19:37:47;100104.59;;;16.45;67.34
1652;BME280;823;49.028;8.454;2022-09-25T19:42:48;100106.28;;;16.46;67.30
1652;BME280;823;49.028;8.454;2022-09-25T19:47:48;100110.00;;;16.42;67.10
1652;BME280;823;49.028;8.454;2022-09-25T19:52:49;100104.88;;;16.41;67.31
1652;BME280;823;49.028;8.454;2022-09-25T19:57:49;100102.44;;;16.38;67.52
1652;BME280;823;49.028;8.454;2022-09-25T20:02:49;100109.25;;;16.40;67.29
1652;BME280;823;49.028;8.454;2022-09-25T20:07:50;100116.44;;;16.37;67.33
1652;BME280;823;49.028;8.454;2022-09-25T20:12:50;100106.84;;;16.37;67.46
1652;BME280;823;49.028;8.454;2022-09-25T20:17:50;100104.97;;;16.39;67.38
1652;BME280;823;49.028;8.454;2022-09-25T20:22:51;100101.31;;;16.42;67.61
1652;BME280;823;49.028;8.454;2022-09-25T20:27:51;100098.81;;;16.40;67.59
1652;BME280;823;49.028;8.454;2022-09-25T20:32:52;100107.50;;;16.41;67.37
1652;BME280;823;49.028;8.454;2022-09-25T20:37:52;100097.13;;;16.39;67.75
1652;BME280;823;49.028;8.454;2022-09-25T20:42:52;100091.38;;;16.34;67.72
1652;BME280;823;49.028;8.454;2022-09-25T20:47:53;100094.34;;;16.28;68.02
1652;BME280;823;49.028;8.454;2022-09-25T20:52:54;100107.41;;;16.28;67.96
1652;BME280;823;49.028;8.454;2022-09-25T20:57:57;100103.03;;;16.28;67.56
1652;BME280;823;49.028;8.454;2022-09-25T21:02:57;100111.50;;;16.17;67.94
1652;BME280;823;49.028;8.454;2022-09-25T21:07:59;100097.16;;;16.25;67.74
1652;BME280;823;49.028;8.454;2022-09-25T21:13:00;100091.94;;;16.25;67.33
1652;BME280;823;49.028;8.454;2022-09-25T21:18:03;100094.75;;;16.22;67.43
1652;BME280;823;49.028;8.454;2022-09-25T21:23:04;100091.38;;;16.20;67.47
1652;BME280;823;49.028;8.454;2022-09-25T21:28:04;100096.88;;;16.15;67.48
1652;BME280;823;49.028;8.454;2022-09-25T21:33:04;100096.69;;;16.18;67.80
1652;BME280;823;49.028;8.454;2022-09-25T21:38:05;100098.56;;;16.16;67.57
1652;BME280;823;49.028;8.454;2022-09-25T21:43:05;100090.38;;;16.08;67.48
1652;BME280;823;49.028;8.454;2022-09-25T21:48:06;100087.66;;;16.09;67.59
1652;BME280;823;49.028;8.454;2022-09-25T21:53:06;100077.22;;;16.09;67.25
1652;BME280;823;49.028;8.454;2022-09-25T21:58:06;100080.84;;;16.07;67.33
1652;BME280;823;49.028;8.454;2022-09-25T22:03:07;100074.88;;;16.05;66.92
1652;BME280;823;49.028;8.454;2022-09-25T22:08:08;100083.19;;;15.97;67.22
1652;BME280;823;49.028;8.454;2022-09-25T22:13:08;100082.34;;;15.96;66.81
1652;BME280;823;49.028;8.454;2022-09-25T22:18:09;100071.44;;;15.90;66.75
1652;BME280;823;49.028;8.454;2022-09-25T22:23:09;100069.09;;;15.85;66.78
1652;BME280;823;49.028;8.454;2022-09-25T22:28:09;100052.81;;;15.81;66.75
1652;BME280;823;49.028;8.454;2022-09-25T22:33:10;100055.84;;;15.74;66.62
1652;BME280;823;49.028;8.454;2022-09-25T22:38:10;100064.03;;;15.68;66.61
1652;BME280;823;49.028;8.454;2022-09-25T22:43:11;100062.06;;;15.57;66.80
1652;BME280;823;49.028;8.454;2022-09-25T22:48:11;100063.00;;;15.56;66.83
1652;BME280;823;49.028;8.454;2022-09-25T22:53:11;100057.03;;;15.54;66.64
1652;BME280;823;49.028;8.454;2022-09-25T22:58:12;100051.44;;;15.45;67.04
1652;BME280;823;49.028;8.454;2022-09-25T23:03:13;100051.44;;;15.45;66.90
1652;BME280;823;49.028;8.454;2022-09-25T23:08:13;100053.28;;;15.43;66.99
1652;BME280;823;49.028;8.454;2022-09-25T23:13:14;100048.34;;;15.39;66.93
1652;BME280;823;49.028;8.454;2022-09-25T23:18:14;100043.50;;;15.32;66.91
1652;BME280;823;49.028;8.454;2022-09-25T23:23:14;100042.25;;;15.24;67.04
1652;BME280;823;49.028;8.454;2022-09-25T23:28:15;100040.59;;;15.23;67.19
1652;BME280;823;49.028;8.454;2022-09-25T23:33:15;100031.44;;;15.15;67.35
1652;BME280;823;49.028;8.454;2022-09-25T23:38:15;100027.16;;;15.14;67.10
1652;BME280;823;49.028;8.454;2022-09-25T23:43:15;100028.19;;;15.12;67.21
1652;BME280;823;49.028;8.454;2022-09-25T23:48:17;100026.31;;;15.00;67.36
1652;BME280;823;49.028;8.454;2022-09-25T23:53:17;100032.06;;;15.05;67.21
1652;BME280;823;49.028;8.454;2022-09-25T23:58:18;100022.09;;;14.97;67.67
